Flight Number: EUR1175 Duration: 2:20
Departure: Madrid / Barajas (LEMD) at 08:30 Distance: 955 Nm
Arrival: Tenerife Norte (GCXO) at 10:50 Equipment: A321

Weather Information
Madrid / Barajas, Spain (LEMD) 40-27N 003-33W 582M Jan 23, 2018 - 04:30 AM EST / 2018.01.23 0930 UTC
Wind: from the NNW (340 degrees) at 7 MPH (6 KT) (direction variable):0
Visibility: greater than 7 mile(s):0 Temperature: 39 F (4 C) Dew Point: 33 F (1 C) Relative Humidity: 80% Pressure (altimeter): 30.42 in. Hg (1030 hPa)
ob: LEMD 230930Z 34006KT 310V010 CAVOK 04/01 Q1030 NOSIG cycle: 9
Sunrise: 07:34 Sunset: 17:18 (UTC)

Tenerife / Los Rodeos, Spain (GCXO) 28-28N 016-19W 617M Jan 23, 2018 - 04:30 AM EST / 2018.01.23 0930 UTC
Wind: from the ESE (120 degrees) at 13 MPH (11 KT):0
Visibility: greater than 7 mile(s):0
Sky conditions: mostly cloudy Temperature: 55 F (13 C) Dew Point: 51 F (11 C) Relative Humidity: 87% Pressure (altimeter): 30.33 in. Hg (1027 hPa)
ob: GCXO 230930Z 12011KT 9999 BKN009 13/11 Q1027 NOSIG cycle: 9
Sunrise: 07:59 Sunset: 18:34 (UTC)

TAF:2018/01/23 09:45 TAF COR TAF COR GCXO 230840Z 2309/2409 12010KT 9999 BKN020 TX18/2314Z TN10/2406Z TEMPO 2309/2310 VRB05KT TEMPO 2309/2311 BKN007

Previous Pireps for this route
Date Aircraft Flight time Fuel used Landing rate On time
2012-10-28A32102.5416304-310No
2013-06-05A32102.5116238-344No
2013-10-29B7372.20200000No
2014-06-11A32102.2814963-193Yes
2014-07-15A3212.4194480No
2014-07-19A32102.3615014-185Yes
2014-10-12A3212.20170000No
2015-01-06A3212.53221550No
(pireps marked green are flown by you)

Route map